sensor_id;sensor_type;location;lat;lon;timestamp;temperature;humidity
68609;SHT31;55581;46.718;7.690;2023-03-04T00:00:10;3.75;83.88
68609;SHT31;55581;46.718;7.690;2023-03-04T00:02:39;3.73;84.89
68609;SHT31;55581;46.718;7.690;2023-03-04T00:05:07;3.73;84.67
68609;SHT31;55581;46.718;7.690;2023-03-04T00:07:33;3.71;84.84
68609;SHT31;55581;46.718;7.690;2023-03-04T00:09:58;3.67;85.10
68609;SHT31;55581;46.718;7.690;2023-03-04T00:12:26;3.70;85.13
68609;SHT31;55581;46.718;7.690;2023-03-04T00:14:57;3.67;85.11
68609;SHT31;55581;46.718;7.690;2023-03-04T00:17:32;3.71;85.64
68609;SHT31;55581;46.718;7.690;2023-03-04T00:19:57;3.74;85.08
68609;SHT31;55581;46.718;7.690;2023-03-04T00:22:24;3.78;85.04
68609;SHT31;55581;46.718;7.690;2023-03-04T00:24:49;3.79;84.70
68609;SHT31;55581;46.718;7.690;2023-03-04T00:27:16;3.82;84.56
68609;SHT31;55581;46.718;7.690;2023-03-04T00:29:48;3.78;84.39
68609;SHT31;55581;46.718;7.690;2023-03-04T00:32:15;3.77;84.42
68609;SHT31;55581;46.718;7.690;2023-03-04T00:34:46;3.68;84.75
68609;SHT31;55581;46.718;7.690;2023-03-04T00:37:11;3.60;84.97
68609;SHT31;55581;46.718;7.690;2023-03-04T00:39:37;3.56;85.18
68609;SHT31;55581;46.718;7.690;2023-03-04T00:42:02;3.57;85.26
68609;SHT31;55581;46.718;7.690;2023-03-04T00:44:29;3.61;84.97
68609;SHT31;55581;46.718;7.690;2023-03-04T00:46:55;3.68;84.77
68609;SHT31;55581;46.718;7.690;2023-03-04T00:49:23;3.73;84.05
68609;SHT31;55581;46.718;7.690;2023-03-04T00:51:52;3.68;84.61
68609;SHT31;55581;46.718;7.690;2023-03-04T00:54:17;3.73;84.19
68609;SHT31;55581;46.718;7.690;2023-03-04T00:56:42;3.77;84.28
68609;SHT31;55581;46.718;7.690;2023-03-04T00:59:09;3.75;83.89
68609;SHT31;55581;46.718;7.690;2023-03-04T01:01:34;3.75;84.49
68609;SHT31;55581;46.718;7.690;2023-03-04T01:04:00;3.74;84.37
68609;SHT31;55581;46.718;7.690;2023-03-04T01:06:28;3.68;83.79
68609;SHT31;55581;46.718;7.690;2023-03-04T01:08:56;3.74;83.98
68609;SHT31;55581;46.718;7.690;2023-03-04T01:11:23;3.75;83.41
68609;SHT31;55581;46.718;7.690;2023-03-04T01:13:50;3.77;83.68
68609;SHT31;55581;46.718;7.690;2023-03-04T01:16:18;3.73;83.88
68609;SHT31;55581;46.718;7.690;2023-03-04T01:18:44;3.64;84.32
68609;SHT31;55581;46.718;7.690;2023-03-04T01:21:15;3.66;84.17
68609;SHT31;55581;46.718;7.690;2023-03-04T01:23:40;3.64;84.04
68609;SHT31;55581;46.718;7.690;2023-03-04T01:26:08;3.68;84.83
68609;SHT31;55581;46.718;7.690;2023-03-04T01:28:34;3.74;84.12
68609;SHT31;55581;46.718;7.690;2023-03-04T01:31:02;3.75;83.79
68609;SHT31;55581;46.718;7.690;2023-03-04T01:33:28;3.78;84.05
68609;SHT31;55581;46.718;7.690;2023-03-04T01:35:57;3.78;83.95
68609;SHT31;55581;46.718;7.690;2023-03-04T01:38:27;3.77;84.28
68609;SHT31;55581;46.718;7.690;2023-03-04T01:40:53;3.75;83.99
68609;SHT31;55581;46.718;7.690;2023-03-04T01:43:22;3.75;84.19
68609;SHT31;55581;46.718;7.690;2023-03-04T01:45:50;3.77;84.57
68609;SHT31;55581;46.718;7.690;2023-03-04T01:48:18;3.77;84.24
68609;SHT31;55581;46.718;7.690;2023-03-04T01:50:44;3.73;84.54
68609;SHT31;55581;46.718;7.690;2023-03-04T01:53:23;3.74;84.64
68609;SHT31;55581;46.718;7.690;2023-03-04T01:55:49;3.78;84.33
68609;SHT31;55581;46.718;7.690;2023-03-04T01:58:16;3.77;84.00
68609;SHT31;55581;46.718;7.690;2023-03-04T02:00:41;3.64;84.37
68609;SHT31;55581;46.718;7.690;2023-03-04T02:03:13;3.63;84.81
68609;SHT31;55581;46.718;7.690;2023-03-04T02:05:43;3.64;84.94
68609;SHT31;55581;46.718;7.690;2023-03-04T02:08:09;3.68;84.61
68609;SHT31;55581;46.718;7.690;2023-03-04T02:10:39;3.70;84.65
68609;SHT31;55581;46.718;7.690;2023-03-04T02:13:06;3.70;84.72
68609;SHT31;55581;46.718;7.690;2023-03-04T02:15:34;3.73;84.39
68609;SHT31;55581;46.718;7.690;2023-03-04T02:18:00;3.73;84.71
68609;SHT31;55581;46.718;7.690;2023-03-04T02:25:48;3.71;84.67
68609;SHT31;55581;46.718;7.690;2023-03-04T02:28:17;3.66;84.41
68609;SHT31;55581;46.718;7.690;2023-03-04T02:30:43;3.66;84.71
68609;SHT31;55581;46.718;7.690;2023-03-04T02:33:16;3.60;84.77
68609;SHT31;55581;46.718;7.690;2023-03-04T02:35:42;3.60;84.73
68609;SHT31;55581;46.718;7.690;2023-03-04T02:38:09;3.56;85.02
68609;SHT31;55581;46.718;7.690;2023-03-04T02:40:35;3.53;84.96
68609;SHT31;55581;46.718;7.690;2023-03-04T02:43:02;3.59;85.50
68609;SHT31;55581;46.718;7.690;2023-03-04T02:48:02;3.61;84.58
68609;SHT31;55581;46.718;7.690;2023-03-04T02:50:33;3.71;84.60
68609;SHT31;55581;46.718;7.690;2023-03-04T02:53:01;3.67;84.80
68609;SHT31;55581;46.718;7.690;2023-03-04T02:55:27;3.67;84.32
68609;SHT31;55581;46.718;7.690;2023-03-04T02:57:53;3.67;84.28
68609;SHT31;55581;46.718;7.690;2023-03-04T03:00:19;3.61;84.89
68609;SHT31;55581;46.718;7.690;2023-03-04T03:02:45;3.61;85.11
68609;SHT31;55581;46.718;7.690;2023-03-04T03:05:11;3.59;84.95
68609;SHT31;55581;46.718;7.690;2023-03-04T03:07:36;3.56;84.59
68609;SHT31;55581;46.718;7.690;2023-03-04T03:10:03;3.50;85.02
68609;SHT31;55581;46.718;7.690;2023-03-04T03:12:30;3.49;85.44
68609;SHT31;55581;46.718;7.690;2023-03-04T03:14:56;3.50;84.64
68609;SHT31;55581;46.718;7.690;2023-03-04T03:17:21;3.53;85.26
68609;SHT31;55581;46.718;7.690;2023-03-04T03:19:46;3.50;84.62
68609;SHT31;55581;46.718;7.690;2023-03-04T03:22:12;3.49;84.86
68609;SHT31;55581;46.718;7.690;2023-03-04T03:24:37;3.47;84.78
68609;SHT31;55581;46.718;7.690;2023-03-04T03:27:03;3.47;85.01
68609;SHT31;55581;46.718;7.690;2023-03-04T03:29:28;3.49;85.36
68609;SHT31;55581;46.718;7.690;2023-03-04T03:31:53;3.47;85.24
68609;SHT31;55581;46.718;7.690;2023-03-04T03:34:21;3.49;85.03
68609;SHT31;55581;46.718;7.690;2023-03-04T03:36:47;3.53;85.37
68609;SHT31;55581;46.718;7.690;2023-03-04T03:39:15;3.53;84.89
68609;SHT31;55581;46.718;7.690;2023-03-04T03:41:43;3.57;85.17
68609;SHT31;55581;46.718;7.690;2023-03-04T03:44:11;3.46;84.77
68609;SHT31;55581;46.718;7.690;2023-03-04T03:46:36;3.53;85.26
68609;SHT31;55581;46.718;7.690;2023-03-04T03:49:04;3.53;84.99
68609;SHT31;55581;46.718;7.690;2023-03-04T03:51:29;3.44;85.28
68609;SHT31;55581;46.718;7.690;2023-03-04T03:53:55;3.49;85.29
68609;SHT31;55581;46.718;7.690;2023-03-04T03:56:20;3.50;85.66
68609;SHT31;55581;46.718;7.690;2023-03-04T03:58:48;3.49;85.31
68609;SHT31;55581;46.718;7.690;2023-03-04T04:01:13;3.43;85.33
68609;SHT31;55581;46.718;7.690;2023-03-04T04:03:39;3.43;85.37
68609;SHT31;55581;46.718;7.690;2023-03-04T04:06:04;3.40;85.59
68609;SHT31;55581;46.718;7.690;2023-03-04T04:08:30;3.43;85.08
68609;SHT31;55581;46.718;7.690;2023-03-04T04:10:55;3.44;85.32
68609;SHT31;55581;46.718;7.690;2023-03-04T04:13:23;3.46;85.46
68609;SHT31;55581;46.718;7.690;2023-03-04T04:15:50;3.47;85.26
68609;SHT31;55581;46.718;7.690;2023-03-04T04:18:16;3.50;85.28
68609;SHT31;55581;46.718;7.690;2023-03-04T04:20:43;3.51;84.79
68609;SHT31;55581;46.718;7.690;2023-03-04T04:23:08;3.56;84.92
68609;SHT31;55581;46.718;7.690;2023-03-04T04:25:33;3.56;84.30
68609;SHT31;55581;46.718;7.690;2023-03-04T04:28:01;3.53;84.63
68609;SHT31;55581;46.718;7.690;2023-03-04T04:30:29;3.51;84.98
68609;SHT31;55581;46.718;7.690;2023-03-04T04:32:54;3.51;84.68
68609;SHT31;55581;46.718;7.690;2023-03-04T04:35:20;3.49;84.88
68609;SHT31;55581;46.718;7.690;2023-03-04T04:37:45;3.44;84.94
68609;SHT31;55581;46.718;7.690;2023-03-04T04:40:11;3.46;84.92
68609;SHT31;55581;46.718;7.690;2023-03-04T04:42:37;3.49;84.71
68609;SHT31;55581;46.718;7.690;2023-03-04T04:45:03;3.53;84.39
68609;SHT31;55581;46.718;7.690;2023-03-04T04:47:31;3.53;84.62
68609;SHT31;55581;46.718;7.690;2023-03-04T04:49:57;3.50;84.53
68609;SHT31;55581;46.718;7.690;2023-03-04T04:52:24;3.50;85.24
68609;SHT31;55581;46.718;7.690;2023-03-04T04:54:49;3.54;85.03
68609;SHT31;55581;46.718;7.690;2023-03-04T04:57:14;3.53;85.20
68609;SHT31;55581;46.718;7.690;2023-03-04T04:59:42;3.53;84.93
68609;SHT31;55581;46.718;7.690;2023-03-04T05:02:12;3.56;85.07
68609;SHT31;55581;46.718;7.690;2023-03-04T05:04:38;3.54;85.32
68609;SHT31;55581;46.718;7.690;2023-03-04T05:07:03;3.59;84.95
68609;SHT31;55581;46.718;7.690;2023-03-04T05:09:31;3.60;85.06
68609;SHT31;55581;46.718;7.690;2023-03-04T05:11:56;3.63;85.31
68609;SHT31;55581;46.718;7.690;2023-03-04T05:14:22;3.63;85.09
68609;SHT31;55581;46.718;7.690;2023-03-04T05:16:47;3.60;84.51
68609;SHT31;55581;46.718;7.690;2023-03-04T05:19:13;3.60;84.77
68609;SHT31;55581;46.718;7.690;2023-03-04T05:21:38;3.59;84.56
68609;SHT31;55581;46.718;7.690;2023-03-04T05:24:04;3.53;84.47
68609;SHT31;55581;46.718;7.690;2023-03-04T05:26:29;3.56;84.76
68609;SHT31;55581;46.718;7.690;2023-03-04T05:28:55;3.53;84.94
68609;SHT31;55581;46.718;7.690;2023-03-04T05:31:20;3.46;85.12
68609;SHT31;55581;46.718;7.690;2023-03-04T05:33:46;3.42;85.09
68609;SHT31;55581;46.718;7.690;2023-03-04T05:36:11;3.40;86.21
68609;SHT31;55581;46.718;7.690;2023-03-04T05:38:36;3.37;85.29
68609;SHT31;55581;46.718;7.690;2023-03-04T05:41:04;3.39;86.46
68609;SHT31;55581;46.718;7.690;2023-03-04T05:43:32;3.39;85.57
68609;SHT31;55581;46.718;7.690;2023-03-04T05:46:00;3.37;86.13
68609;SHT31;55581;46.718;7.690;2023-03-04T05:48:28;3.36;85.46
68609;SHT31;55581;46.718;7.690;2023-03-04T05:50:58;3.39;85.42
68609;SHT31;55581;46.718;7.690;2023-03-04T05:53:26;3.27;86.09
68609;SHT31;55581;46.718;7.690;2023-03-04T05:55:51;3.26;86.88
68609;SHT31;55581;46.718;7.690;2023-03-04T05:58:18;3.27;86.58
68609;SHT31;55581;46.718;7.690;2023-03-04T06:00:44;3.33;86.38
68609;SHT31;55581;46.718;7.690;2023-03-04T06:03:18;3.27;85.96
68609;SHT31;55581;46.718;7.690;2023-03-04T06:05:44;3.26;86.33
68609;SHT31;55581;46.718;7.690;2023-03-04T06:08:10;3.19;86.15
68609;SHT31;55581;46.718;7.690;2023-03-04T06:10:36;3.15;86.23
68609;SHT31;55581;46.718;7.690;2023-03-04T06:13:01;3.01;86.49
68609;SHT31;55581;46.718;7.690;2023-03-04T06:15:29;2.94;86.83
68609;SHT31;55581;46.718;7.690;2023-03-04T06:17:57;2.95;86.84
68609;SHT31;55581;46.718;7.690;2023-03-04T06:20:24;2.88;87.07
68609;SHT31;55581;46.718;7.690;2023-03-04T06:22:50;2.85;86.97
68609;SHT31;55581;46.718;7.690;2023-03-04T06:25:15;2.75;87.11
68609;SHT31;55581;46.718;7.690;2023-03-04T06:27:41;2.74;87.13
68609;SHT31;55581;46.718;7.690;2023-03-04T06:30:11;2.65;87.49
68609;SHT31;55581;46.718;7.690;2023-03-04T06:32:37;2.58;87.35
68609;SHT31;55581;46.718;7.690;2023-03-04T06:35:03;2.62;86.51
68609;SHT31;55581;46.718;7.690;2023-03-04T06:37:31;2.53;86.67
68609;SHT31;55581;46.718;7.690;2023-03-04T06:39:58;2.41;86.08
68609;SHT31;55581;46.718;7.690;2023-03-04T06:42:24;2.30;87.18
68609;SHT31;55581;46.718;7.690;2023-03-04T06:44:49;2.23;87.33
68609;SHT31;55581;46.718;7.690;2023-03-04T06:47:17;2.20;88.27
68609;SHT31;55581;46.718;7.690;2023-03-04T06:49:43;2.20;88.09
68609;SHT31;55581;46.718;7.690;2023-03-04T06:52:08;2.22;88.20
68609;SHT31;55581;46.718;7.690;2023-03-04T06:54:36;2.22;88.33
68609;SHT31;55581;46.718;7.690;2023-03-04T06:57:01;2.25;87.75
68609;SHT31;55581;46.718;7.690;2023-03-04T06:59:27;2.23;87.73
68609;SHT31;55581;46.718;7.690;2023-03-04T07:01:53;2.22;87.49
68609;SHT31;55581;46.718;7.690;2023-03-04T07:04:18;2.15;86.91
68609;SHT31;55581;46.718;7.690;2023-03-04T07:06:45;2.11;88.19
68609;SHT31;55581;46.718;7.690;2023-03-04T07:09:11;2.19;89.23
68609;SHT31;55581;46.718;7.690;2023-03-04T07:11:38;2.30;88.49
68609;SHT31;55581;46.718;7.690;2023-03-04T07:14:06;2.39;88.02
68609;SHT31;55581;46.718;7.690;2023-03-04T07:16:31;2.44;87.61
68609;SHT31;55581;46.718;7.690;2023-03-04T07:18:58;2.54;87.13
68609;SHT31;55581;46.718;7.690;2023-03-04T07:21:23;2.43;87.19
68609;SHT31;55581;46.718;7.690;2023-03-04T07:23:49;2.56;87.56
68609;SHT31;55581;46.718;7.690;2023-03-04T07:26:15;2.64;87.86
68609;SHT31;55581;46.718;7.690;2023-03-04T07:28:42;2.81;87.62
68609;SHT31;55581;46.718;7.690;2023-03-04T07:31:19;2.95;86.51
68609;SHT31;55581;46.718;7.690;2023-03-04T07:33:44;3.08;86.44
68609;SHT31;55581;46.718;7.690;2023-03-04T07:36:10;3.12;85.92
68609;SHT31;55581;46.718;7.690;2023-03-04T07:38:35;3.20;85.53
68609;SHT31;55581;46.718;7.690;2023-03-04T07:41:01;3.39;85.53
68609;SHT31;55581;46.718;7.690;2023-03-04T07:43:27;3.47;85.24
68609;SHT31;55581;46.718;7.690;2023-03-04T07:45:58;3.56;84.85
68609;SHT31;55581;46.718;7.690;2023-03-04T07:48:25;3.66;85.17
68609;SHT31;55581;46.718;7.690;2023-03-04T07:51:05;3.75;83.95
68609;SHT31;55581;46.718;7.690;2023-03-04T07:53:35;3.85;84.43
68609;SHT31;55581;46.718;7.690;2023-03-04T07:56:01;3.92;83.59
68609;SHT31;55581;46.718;7.690;2023-03-04T07:58:29;3.97;83.40
68609;SHT31;55581;46.718;7.690;2023-03-04T08:00:55;3.95;83.72
68609;SHT31;55581;46.718;7.690;2023-03-04T08:03:20;4.10;83.26
68609;SHT31;55581;46.718;7.690;2023-03-04T08:05:46;4.05;83.11
68609;SHT31;55581;46.718;7.690;2023-03-04T08:08:11;4.12;83.09
68609;SHT31;55581;46.718;7.690;2023-03-04T08:10:37;4.13;82.59
68609;SHT31;55581;46.718;7.690;2023-03-04T08:13:05;4.15;81.88
68609;SHT31;55581;46.718;7.690;2023-03-04T08:15:30;4.20;81.92
68609;SHT31;55581;46.718;7.690;2023-03-04T08:17:57;4.23;82.02
68609;SHT31;55581;46.718;7.690;2023-03-04T08:20:25;4.36;81.78
68609;SHT31;55581;46.718;7.690;2023-03-04T08:22:50;4.46;82.23
68609;SHT31;55581;46.718;7.690;2023-03-04T08:25:21;4.53;80.71
68609;SHT31;55581;46.718;7.690;2023-03-04T08:27:46;4.64;79.84
68609;SHT31;55581;46.718;7.690;2023-03-04T08:30:12;4.75;80.65
68609;SHT31;55581;46.718;7.690;2023-03-04T08:32:37;4.84;79.32
68609;SHT31;55581;46.718;7.690;2023-03-04T08:35:05;4.93;79.24
68609;SHT31;55581;46.718;7.690;2023-03-04T08:37:31;4.95;79.36
68609;SHT31;55581;46.718;7.690;2023-03-04T08:39:58;4.99;78.90
68609;SHT31;55581;46.718;7.690;2023-03-04T08:42:24;5.16;78.64
68609;SHT31;55581;46.718;7.690;2023-03-04T08:44:49;5.18;77.75
68609;SHT31;55581;46.718;7.690;2023-03-04T08:47:15;5.32;78.58
68609;SHT31;55581;46.718;7.690;2023-03-04T08:49:40;5.25;77.33
68609;SHT31;55581;46.718;7.690;2023-03-04T08:52:06;5.35;77.48
68609;SHT31;55581;46.718;7.690;2023-03-04T08:54:32;5.51;76.78
68609;SHT31;55581;46.718;7.690;2023-03-04T08:56:59;5.54;76.10
68609;SHT31;55581;46.718;7.690;2023-03-04T08:59:24;5.58;77.01
68609;SHT31;55581;46.718;7.690;2023-03-04T09:01:52;5.73;76.38
68609;SHT31;55581;46.718;7.690;2023-03-04T09:04:18;5.87;75.50
68609;SHT31;55581;46.718;7.690;2023-03-04T09:06:46;5.84;74.50
68609;SHT31;55581;46.718;7.690;2023-03-04T09:09:12;6.02;73.19
68609;SHT31;55581;46.718;7.690;2023-03-04T09:11:38;6.02;73.22
68609;SHT31;55581;46.718;7.690;2023-03-04T09:14:03;6.16;73.76
68609;SHT31;55581;46.718;7.690;2023-03-04T09:16:28;6.19;72.75
68609;SHT31;55581;46.718;7.690;2023-03-04T09:18:54;6.30;73.42
68609;SHT31;55581;46.718;7.690;2023-03-04T09:21:20;6.32;74.40
68609;SHT31;55581;46.718;7.690;2023-03-04T09:23:45;6.60;74.04
68609;SHT31;55581;46.718;7.690;2023-03-04T09:26:24;6.50;72.50
68609;SHT31;55581;46.718;7.690;2023-03-04T09:28:59;6.64;73.09
68609;SHT31;55581;46.718;7.690;2023-03-04T09:31:25;6.58;71.17
68609;SHT31;55581;46.718;7.690;2023-03-04T09:33:53;6.71;71.82
68609;SHT31;55581;46.718;7.690;2023-03-04T09:36:19;6.70;71.62
68609;SHT31;55581;46.718;7.690;2023-03-04T09:38:45;6.83;70.80
68609;SHT31;55581;46.718;7.690;2023-03-04T09:41:27;6.78;70.85
68609;SHT31;55581;46.718;7.690;2023-03-04T09:43:57;6.91;69.89
68609;SHT31;55581;46.718;7.690;2023-03-04T09:46:37;6.99;69.37
68609;SHT31;55581;46.718;7.690;2023-03-04T09:49:08;6.94;69.83
68609;SHT31;55581;46.718;7.690;2023-03-04T09:51:43;7.02;68.63
68609;SHT31;55581;46.718;7.690;2023-03-04T09:54:20;7.12;67.16
68609;SHT31;55581;46.718;7.690;2023-03-04T09:56:59;7.26;68.53
68609;SHT31;55581;46.718;7.690;2023-03-04T09:59:44;7.24;66.68
68609;SHT31;55581;46.718;7.690;2023-03-04T10:02:41;7.27;66.72
68609;SHT31;55581;46.718;7.690;2023-03-04T10:05:13;7.36;64.85
68609;SHT31;55581;46.718;7.690;2023-03-04T10:07:42;7.49;65.10
68609;SHT31;55581;46.718;7.690;2023-03-04T10:10:21;7.68;65.16
68609;SHT31;55581;46.718;7.690;2023-03-04T10:12:50;7.73;63.13
68609;SHT31;55581;46.718;7.690;2023-03-04T10:17:56;7.78;62.51
68609;SHT31;55581;46.718;7.690;2023-03-04T10:20:32;7.73;60.97
68609;SHT31;55581;46.718;7.690;2023-03-04T10:23:09;7.78;61.16
68609;SHT31;55581;46.718;7.690;2023-03-04T10:25:38;7.57;61.81
68609;SHT31;55581;46.718;7.690;2023-03-04T10:28:16;7.73;61.99
68609;SHT31;55581;46.718;7.690;2023-03-04T10:33:28;8.01;62.50
68609;SHT31;55581;46.718;7.690;2023-03-04T10:36:03;7.94;60.80
68609;SHT31;55581;46.718;7.690;2023-03-04T10:38:35;8.02;59.71
68609;SHT31;55581;46.718;7.690;2023-03-04T10:41:01;8.12;60.85
68609;SHT31;55581;46.718;7.690;2023-03-04T10:43:35;8.23;59.39
68609;SHT31;55581;46.718;7.690;2023-03-04T10:46:01;8.36;58.69
68609;SHT31;55581;46.718;7.690;2023-03-04T10:48:30;8.57;58.09
68609;SHT31;55581;46.718;7.690;2023-03-04T10:51:22;8.84;58.14
68609;SHT31;55581;46.718;7.690;2023-03-04T10:53:51;8.93;57.99
68609;SHT31;55581;46.718;7.690;2023-03-04T11:02:05;9.09;56.85
68609;SHT31;55581;46.718;7.690;2023-03-04T11:04:35;9.23;58.39
68609;SHT31;55581;46.718;7.690;2023-03-04T11:07:00;9.22;56.58
68609;SHT31;55581;46.718;7.690;2023-03-04T11:09:28;9.27;57.92
68609;SHT31;55581;46.718;7.690;2023-03-04T11:11:55;9.30;57.86
68609;SHT31;55581;46.718;7.690;2023-03-04T11:14:47;9.35;57.51
68609;SHT31;55581;46.718;7.690;2023-03-04T11:17:25;9.64;58.69
68609;SHT31;55581;46.718;7.690;2023-03-04T11:20:12;9.69;57.35
68609;SHT31;55581;46.718;7.690;2023-03-04T11:22:39;9.84;57.09
68609;SHT31;55581;46.718;7.690;2023-03-04T11:25:20;9.97;57.06
68609;SHT31;55581;46.718;7.690;2023-03-04T11:31:07;10.18;57.18
68609;SHT31;55581;46.718;7.690;2023-03-04T11:39:26;10.15;58.26
68609;SHT31;55581;46.718;7.690;2023-03-04T11:42:00;10.39;58.55
68609;SHT31;55581;46.718;7.690;2023-03-04T11:44:28;10.52;57.62
68609;SHT31;55581;46.718;7.690;2023-03-04T11:47:09;10.49;56.15
68609;SHT31;55581;46.718;7.690;2023-03-04T11:50:17;10.61;57.68
68609;SHT31;55581;46.718;7.690;2023-03-04T11:52:58;10.78;56.53
68609;SHT31;55581;46.718;7.690;2023-03-04T12:01:10;10.80;55.72
68609;SHT31;55581;46.718;7.690;2023-03-04T12:14:56;11.29;53.83
68609;SHT31;55581;46.718;7.690;2023-03-04T12:17:49;11.28;54.55
68609;SHT31;55581;46.718;7.690;2023-03-04T12:23:25;11.21;55.59
68609;SHT31;55581;46.718;7.690;2023-03-04T12:39:12;11.95;53.33
68609;SHT31;55581;46.718;7.690;2023-03-04T12:44:41;12.05;51.68
68609;SHT31;55581;46.718;7.690;2023-03-04T12:47:30;11.53;53.96
68609;SHT31;55581;46.718;7.690;2023-03-04T12:55:46;11.76;54.93
68609;SHT31;55581;46.718;7.690;2023-03-04T12:58:20;11.97;53.65
68609;SHT31;55581;46.718;7.690;2023-03-04T13:09:27;12.14;52.49
68609;SHT31;55581;46.718;7.690;2023-03-04T13:12:19;12.38;51.39
68609;SHT31;55581;46.718;7.690;2023-03-04T13:23:03;12.48;52.71
68609;SHT31;55581;46.718;7.690;2023-03-04T13:28:19;12.76;51.39
68609;SHT31;55581;46.718;7.690;2023-03-04T13:51:39;13.21;50.42
68609;SHT31;55581;46.718;7.690;2023-03-04T13:56:45;12.95;51.30
68609;SHT31;55581;46.718;7.690;2023-03-04T13:59:43;12.90;51.55
68609;SHT31;55581;46.718;7.690;2023-03-04T14:02:21;13.04;51.18
68609;SHT31;55581;46.718;7.690;2023-03-04T14:12:34;13.03;54.75
68609;SHT31;55581;46.718;7.690;2023-03-04T14:17:39;12.90;53.99
68609;SHT31;55581;46.718;7.690;2023-03-04T14:20:29;12.76;53.42
68609;SHT31;55581;46.718;7.690;2023-03-04T14:22:59;12.83;52.88
68609;SHT31;55581;46.718;7.690;2023-03-04T14:25:32;12.63;52.01
68609;SHT31;55581;46.718;7.690;2023-03-04T14:28:03;12.66;53.90
68609;SHT31;55581;46.718;7.690;2023-03-04T14:30:30;12.77;51.82
68609;SHT31;55581;46.718;7.690;2023-03-04T14:32:57;12.87;50.48
68609;SHT31;55581;46.718;7.690;2023-03-04T14:35:26;12.88;50.59
68609;SHT31;55581;46.718;7.690;2023-03-04T14:38:11;12.91;50.03
68609;SHT31;55581;46.718;7.690;2023-03-04T14:40:42;12.67;51.01
68609;SHT31;55581;46.718;7.690;2023-03-04T14:43:18;12.63;50.60
68609;SHT31;55581;46.718;7.690;2023-03-04T14:45:46;12.76;51.76
68609;SHT31;55581;46.718;7.690;2023-03-04T14:48:25;12.80;51.58
68609;SHT31;55581;46.718;7.690;2023-03-04T14:50:53;13.01;50.87
68609;SHT31;55581;46.718;7.690;2023-03-04T14:53:22;13.00;50.70
68609;SHT31;55581;46.718;7.690;2023-03-04T14:58:28;12.76;51.13
68609;SHT31;55581;46.718;7.690;2023-03-04T15:01:19;13.07;52.10
68609;SHT31;55581;46.718;7.690;2023-03-04T15:03:55;12.95;52.74
68609;SHT31;55581;46.718;7.690;2023-03-04T15:06:27;13.34;52.78
68609;SHT31;55581;46.718;7.690;2023-03-04T15:09:04;13.29;52.68
68609;SHT31;55581;46.718;7.690;2023-03-04T15:11:43;13.16;49.60
68609;SHT31;55581;46.718;7.690;2023-03-04T15:22:33;13.08;51.56
68609;SHT31;55581;46.718;7.690;2023-03-04T15:25:02;13.01;51.49
68609;SHT31;55581;46.718;7.690;2023-03-04T15:27:30;12.94;51.76
68609;SHT31;55581;46.718;7.690;2023-03-04T15:29:57;12.87;52.28
68609;SHT31;55581;46.718;7.690;2023-03-04T15:32:30;12.75;50.66
68609;SHT31;55581;46.718;7.690;2023-03-04T15:34:55;12.70;51.33
68609;SHT31;55581;46.718;7.690;2023-03-04T15:37:26;12.63;52.13
68609;SHT31;55581;46.718;7.690;2023-03-04T15:39:54;12.46;52.70
68609;SHT31;55581;46.718;7.690;2023-03-04T15:42:20;12.53;53.00
68609;SHT31;55581;46.718;7.690;2023-03-04T15:44:48;12.49;53.08
68609;SHT31;55581;46.718;7.690;2023-03-04T15:47:13;12.29;52.81
68609;SHT31;55581;46.718;7.690;2023-03-04T15:49:43;12.33;52.58
68609;SHT31;55581;46.718;7.690;2023-03-04T15:52:21;12.35;53.60
68609;SHT31;55581;46.718;7.690;2023-03-04T15:54:49;12.22;54.43
68609;SHT31;55581;46.718;7.690;2023-03-04T15:57:25;12.02;55.42
68609;SHT31;55581;46.718;7.690;2023-03-04T15:59:52;11.94;55.68
68609;SHT31;55581;46.718;7.690;2023-03-04T16:02:22;11.93;55.55
68609;SHT31;55581;46.718;7.690;2023-03-04T16:04:48;11.91;56.61
68609;SHT31;55581;46.718;7.690;2023-03-04T16:07:18;11.83;55.74
68609;SHT31;55581;46.718;7.690;2023-03-04T16:09:45;11.73;56.31
68609;SHT31;55581;46.718;7.690;2023-03-04T16:12:11;11.57;57.18
68609;SHT31;55581;46.718;7.690;2023-03-04T16:14:37;11.11;57.77
68609;SHT31;55581;46.718;7.690;2023-03-04T16:17:03;11.10;58.59
68609;SHT31;55581;46.718;7.690;2023-03-04T16:19:30;11.07;58.97
68609;SHT31;55581;46.718;7.690;2023-03-04T16:21:56;11.02;61.21
68609;SHT31;55581;46.718;7.690;2023-03-04T16:24:21;10.61;61.70
68609;SHT31;55581;46.718;7.690;2023-03-04T16:26:47;10.61;61.76
68609;SHT31;55581;46.718;7.690;2023-03-04T16:29:14;10.52;62.79
68609;SHT31;55581;46.718;7.690;2023-03-04T16:31:39;10.30;62.87
68609;SHT31;55581;46.718;7.690;2023-03-04T16:34:05;10.15;62.26
68609;SHT31;55581;46.718;7.690;2023-03-04T16:36:30;9.97;61.66
68609;SHT31;55581;46.718;7.690;2023-03-04T16:39:06;9.91;61.93
68609;SHT31;55581;46.718;7.690;2023-03-04T16:41:33;9.77;62.46
68609;SHT31;55581;46.718;7.690;2023-03-04T16:44:01;9.70;62.32
68609;SHT31;55581;46.718;7.690;2023-03-04T16:46:27;9.58;62.69
68609;SHT31;55581;46.718;7.690;2023-03-04T16:48:54;9.47;63.61
68609;SHT31;55581;46.718;7.690;2023-03-04T16:51:21;9.37;62.97
68609;SHT31;55581;46.718;7.690;2023-03-04T16:53:51;9.26;63.42
68609;SHT31;55581;46.718;7.690;2023-03-04T16:56:18;9.20;64.00
68609;SHT31;55581;46.718;7.690;2023-03-04T16:58:44;9.11;64.45
68609;SHT31;55581;46.718;7.690;2023-03-04T17:01:16;8.98;64.50
68609;SHT31;55581;46.718;7.690;2023-03-04T17:03:42;8.98;64.04
68609;SHT31;55581;46.718;7.690;2023-03-04T17:06:09;8.89;64.55
68609;SHT31;55581;46.718;7.690;2023-03-04T17:08:34;8.80;64.52
68609;SHT31;55581;46.718;7.690;2023-03-04T17:11:00;8.75;64.38
68609;SHT31;55581;46.718;7.690;2023-03-04T17:13:25;8.72;64.93
68609;SHT31;55581;46.718;7.690;2023-03-04T17:15:53;8.64;66.45
68609;SHT31;55581;46.718;7.690;2023-03-04T17:18:18;8.59;66.28
68609;SHT31;55581;46.718;7.690;2023-03-04T17:20:46;8.50;66.29
68609;SHT31;55581;46.718;7.690;2023-03-04T17:23:11;8.40;65.95
68609;SHT31;55581;46.718;7.690;2023-03-04T17:25:37;8.25;66.79
68609;SHT31;55581;46.718;7.690;2023-03-04T17:28:02;8.21;66.48
68609;SHT31;55581;46.718;7.690;2023-03-04T17:30:28;8.15;66.41
68609;SHT31;55581;46.718;7.690;2023-03-04T17:32:54;8.02;66.54
68609;SHT31;55581;46.718;7.690;2023-03-04T17:35:19;7.99;65.95
68609;SHT31;55581;46.718;7.690;2023-03-04T17:37:44;7.92;66.36
68609;SHT31;55581;46.718;7.690;2023-03-04T17:40:10;7.91;67.11
68609;SHT31;55581;46.718;7.690;2023-03-04T17:42:39;7.84;67.49
68609;SHT31;55581;46.718;7.690;2023-03-04T17:45:06;7.74;67.02
68609;SHT31;55581;46.718;7.690;2023-03-04T17:47:32;7.57;67.45
68609;SHT31;55581;46.718;7.690;2023-03-04T17:49:57;7.53;67.28
68609;SHT31;55581;46.718;7.690;2023-03-04T17:52:23;7.50;68.08
68609;SHT31;55581;46.718;7.690;2023-03-04T17:54:48;7.27;68.90
68609;SHT31;55581;46.718;7.690;2023-03-04T17:57:14;7.19;68.78
68609;SHT31;55581;46.718;7.690;2023-03-04T17:59:40;7.16;68.82
68609;SHT31;55581;46.718;7.690;2023-03-04T18:02:09;7.05;69.35
68609;SHT31;55581;46.718;7.690;2023-03-04T18:04:35;6.95;69.61